Time;durP1;ratioP1;P1;durP2;ratioP2;P2;SDS_P1;SDS_P2;PMS_P1;PMS_P2;Temp;Humidity;BMP_temperature;BMP_pressure;BME280_temperature;BME280_humidity;BME280_pressure;Samples;Min_cycle;Max_cycle;Signal;HPM_P1;HPM_P2
2021/10/29 00:03:28;;;;;;;9.65;2.60;;;11.60;99.90;;;;;;20412194;29;20027;-44
2021/10/29 00:13:29;;;;;;;4.95;2.33;;;11.60;99.90;;;;;;20427397;28;20047;-44
2021/10/29 00:23:31;;;;;;;4.03;1.90;;;11.50;99.90;;;;;;20403734;28;20064;-44
2021/10/29 00:33:32;;;;;;;5.10;2.30;;;11.50;99.90;;;;;;20424829;28;20054;-44
2021/10/29 00:43:33;;;;;;;5.30;2.22;;;11.40;99.90;;;;;;20341759;29;20502;-43
2021/10/29 00:53:34;;;;;;;7.18;2.65;;;11.50;99.90;;;;;;20350994;28;20107;-44
2021/10/29 01:03:40;;;;;;;3.13;2.03;;;11.40;99.90;;;;;;20373364;28;20059;-44
2021/10/29 01:13:48;;;;;;;6.13;2.90;;;11.30;99.90;;;;;;20322624;29;20059;-44
2021/10/29 01:23:50;;;;;;;5.20;2.30;;;11.40;99.90;;;;;;20315733;29;20048;-43
2021/10/29 01:33:51;;;;;;;8.68;2.40;;;11.30;99.90;;;;;;20320825;29;20059;-43
2021/10/29 01:43:52;;;;;;;7.90;2.63;;;11.10;99.90;;;;;;20311433;29;20060;-44
2021/10/29 01:53:55;;;;;;;7.10;2.45;;;11.20;99.90;;;;;;20319625;29;20052;-44
2021/10/29 02:03:56;;;;;;;8.07;2.53;;;11.00;99.90;;;;;;20313877;29;20048;-43
2021/10/29 02:13:57;;;;;;;6.72;2.60;;;11.00;99.90;;;;;;20315171;29;20051;-43
2021/10/29 02:23:58;;;;;;;9.60;2.47;;;10.90;99.90;;;;;;20309740;29;20044;-43
2021/10/29 02:34:00;;;;;;;4.43;2.53;;;10.80;99.90;;;;;;20298070;29;20048;-43
2021/10/29 02:44:01;;;;;;;6.38;2.25;;;10.90;99.90;;;;;;20326394;29;20052;-43
2021/10/29 02:54:02;;;;;;;6.45;2.15;;;10.90;99.90;;;;;;20324566;29;20048;-43
2021/10/29 03:04:04;;;;;;;6.32;2.50;;;11.00;99.90;;;;;;20326016;29;20056;-44
2021/10/29 03:14:05;;;;;;;6.70;2.47;;;11.00;99.90;;;;;;20327211;29;20063;-43
2021/10/29 03:24:06;;;;;;;8.18;3.03;;;11.00;99.90;;;;;;20320749;29;20040;-43
2021/10/29 03:34:07;;;;;;;8.60;2.58;;;11.00;99.90;;;;;;20321612;29;20048;-43
2021/10/29 03:54:20;;;;;;;7.07;2.90;;;10.90;99.90;;;;;;20346555;29;20052;-44
2021/10/29 04:04:21;;;;;;;7.82;2.67;;;10.90;99.90;;;;;;20320997;29;20626;-43
2021/10/29 04:14:27;;;;;;;5.13;2.22;;;11.00;99.90;;;;;;20336599;28;20044;-43
2021/10/29 04:24:28;;;;;;;11.18;3.28;;;10.90;99.90;;;;;;20318229;29;20523;-43
2021/10/29 04:34:30;;;;;;;4.75;1.63;;;10.90;99.90;;;;;;20318079;29;20044;-43
2021/10/29 04:44:31;;;;;;;4.88;2.63;;;11.00;99.90;;;;;;20370204;28;20052;-43
2021/10/29 04:54:32;;;;;;;4.97;1.98;;;10.90;99.90;;;;;;20393638;28;20054;-43
2021/10/29 05:04:33;;;;;;;5.05;2.38;;;10.90;99.90;;;;;;20408482;28;20410;-44
2021/10/29 05:14:34;;;;;;;3.88;2.40;;;10.90;99.90;;;;;;20393762;28;20043;-43
2021/10/29 05:24:36;;;;;;;6.50;2.60;;;10.90;99.90;;;;;;20392154;29;20528;-43
2021/10/29 05:34:37;;;;;;;6.78;2.83;;;10.80;99.90;;;;;;20402738;28;20555;-44
2021/10/29 05:44:38;;;;;;;6.32;2.40;;;10.90;99.90;;;;;;20327486;29;20059;-43
2021/10/29 05:54:51;;;;;;;7.93;2.65;;;11.00;99.90;;;;;;20310438;29;20419;-43
2021/10/29 06:04:52;;;;;;;5.88;2.90;;;10.90;99.90;;;;;;20309509;29;20071;-44
2021/10/29 06:14:53;;;;;;;6.55;2.45;;;10.90;99.90;;;;;;20333379;29;20044;-43
2021/10/29 06:24:55;;;;;;;6.13;2.35;;;11.00;99.90;;;;;;20332067;28;20056;-44
2021/10/29 06:34:56;;;;;;;4.18;1.83;;;11.00;99.90;;;;;;20333802;29;20056;-43
2021/10/29 07:46:45;;;;;;;4.13;1.88;;;11.60;99.90;;;;;;20438745;28;20051;-44
2021/10/29 07:56:47;;;;;;;4.72;2.00;;;11.80;99.90;;;;;;20419988;29;20039;-44
2021/10/29 08:06:50;;;;;;;5.70;2.20;;;12.00;99.90;;;;;;20420414;28;20063;-44
2021/10/29 08:16:51;;;;;;;4.65;2.30;;;12.20;99.90;;;;;;20408285;28;20047;-44
2021/10/29 08:26:53;;;;;;;5.57;1.98;;;12.40;99.90;;;;;;20414490;28;20066;-44
2021/10/29 08:36:57;;;;;;;5.40;2.00;;;12.60;99.90;;;;;;20429000;28;20056;-43
2021/10/29 08:47:01;;;;;;;8.52;2.28;;;12.90;99.90;;;;;;20408206;28;20070;-44
2021/10/29 08:57:03;;;;;;;5.28;2.22;;;13.00;99.90;;;;;;20427738;28;20075;-44
2021/10/29 09:07:34;;;;;;;5.25;2.65;;;13.30;99.90;;;;;;20422275;28;20529;-44
2021/10/29 09:38:54;;;;;;;4.82;1.90;;;13.70;99.90;;;;;;20406104;28;20058;-44
2021/10/29 09:49:04;;;;;;;3.95;1.92;;;13.90;99.90;;;;;;20424773;28;20059;-44
2021/10/29 09:59:05;;;;;;;5.85;2.17;;;14.20;99.90;;;;;;20414225;28;20055;-44
2021/10/29 10:09:10;;;;;;;3.55;1.30;;;14.60;99.90;;;;;;20396832;28;20051;-44
2021/10/29 10:19:11;;;;;;;6.07;1.67;;;14.80;99.90;;;;;;20426672;28;20036;-44
2021/10/29 10:29:27;;;;;;;8.18;3.25;;;14.60;99.90;;;;;;20409874;28;20105;-44
2021/10/29 10:50:13;;;;;;;5.88;2.67;;;15.00;99.90;;;;;;20419418;28;20058;-44
2021/10/29 11:00:29;;;;;;;6.25;1.65;;;15.30;99.90;;;;;;20416800;28;20043;-44
2021/10/29 11:10:31;;;;;;;3.00;1.52;;;15.90;99.90;;;;;;20422841;28;20070;-44
2021/10/29 11:30:44;;;;;;;3.03;1.47;;;17.30;99.90;;;;;;20439727;28;20059;-43
2021/10/29 11:40:46;;;;;;;3.90;1.73;;;17.80;99.90;;;;;;20428552;28;20578;-44
2021/10/29 11:51:09;;;;;;;2.85;1.33;;;18.20;99.90;;;;;;20415932;28;20059;-44
2021/10/29 12:01:25;;;;;;;2.40;1.30;;;18.50;99.90;;;;;;20429457;28;20507;-44
2021/10/29 12:11:26;;;;;;;10.82;1.70;;;19.00;99.90;;;;;;20398536;28;20055;-44
2021/10/29 12:21:32;;;;;;;4.28;1.30;;;19.20;99.90;;;;;;20414125;28;20047;-44
2021/10/29 12:32:02;;;;;;;3.70;1.33;;;19.50;99.90;;;;;;20409479;29;20569;-44
2021/10/29 12:52:59;;;;;;;5.85;2.28;;;20.00;99.90;;;;;;20412794;28;20429;-44
2021/10/29 13:03:01;;;;;;;6.35;2.00;;;20.40;99.90;;;;;;20397088;28;20044;-45
2021/10/29 13:13:13;;;;;;;3.15;1.23;;;20.00;99.90;;;;;;20414027;28;20071;-44
2021/10/29 13:23:43;;;;;;;2.10;0.90;;;20.40;99.90;;;;;;20425294;28;20079;-44
2021/10/29 13:54:24;;;;;;;4.05;1.20;;;18.50;99.90;;;;;;20413001;28;20043;-44
2021/10/29 14:45:58;;;;;;;1.80;0.82;;;17.60;99.90;;;;;;20403015;28;20071;-44
2021/10/29 15:06:37;;;;;;;3.53;1.55;;;17.50;99.90;;;;;;20416394;28;20526;-44
2021/10/29 15:17:02;;;;;;;2.70;1.58;;;17.10;99.90;;;;;;20422470;28;20529;-44
2021/10/29 15:27:22;;;;;;;5.25;1.23;;;16.60;99.90;;;;;;20422168;28;20056;-44
2021/10/29 15:47:46;;;;;;;4.93;1.90;;;16.00;99.90;;;;;;20324992;29;20051;-44
2021/10/29 15:58:04;;;;;;;6.95;1.60;;;15.90;99.90;;;;;;20316404;29;20051;-44
2021/10/29 16:18:25;;;;;;;2.55;1.10;;;15.80;99.90;;;;;;20319701;29;20036;-44
2021/10/29 16:28:31;;;;;;;4.18;1.30;;;15.80;99.90;;;;;;20325054;29;20048;-44
2021/10/29 16:38:33;;;;;;;3.17;1.17;;;15.60;99.90;;;;;;20324025;28;20058;-45
2021/10/29 16:48:34;;;;;;;3.00;1.00;;;15.60;99.90;;;;;;20351773;29;20064;-44
2021/10/29 16:58:35;;;;;;;3.90;0.90;;;15.70;99.90;;;;;;20350274;28;20647;-44
2021/10/29 17:08:37;;;;;;;3.40;1.23;;;15.60;99.90;;;;;;20318660;29;20047;-44
2021/10/29 17:18:38;;;;;;;1.73;0.82;;;15.60;99.90;;;;;;20328235;28;20398;-44
2021/10/29 17:28:39;;;;;;;2.30;1.02;;;15.40;99.90;;;;;;20343379;28;20051;-44
2021/10/29 17:38:40;;;;;;;1.58;0.75;;;15.20;99.90;;;;;;20318131;29;20056;-44
2021/10/29 17:48:41;;;;;;;1.38;0.82;;;15.10;99.90;;;;;;20316139;29;20059;-44
2021/10/29 17:58:43;;;;;;;2.38;1.10;;;15.10;99.90;;;;;;20334443;28;20046;-44
2021/10/29 18:08:53;;;;;;;4.07;0.98;;;15.00;99.90;;;;;;20353676;28;20222;-44
2021/10/29 18:18:56;;;;;;;3.85;1.40;;;14.80;99.90;;;;;;20386016;28;20059;-44
2021/10/29 18:28:59;;;;;;;2.15;0.95;;;14.80;99.90;;;;;;20337065;29;20047;-44
2021/10/29 18:39:02;;;;;;;4.68;1.20;;;14.70;99.90;;;;;;20402047;28;20047;-44
2021/10/29 18:49:04;;;;;;;3.30;1.27;;;14.60;99.90;;;;;;20424392;28;20062;-44
2021/10/29 18:59:06;;;;;;;4.78;2.20;;;14.50;99.90;;;;;;20423888;29;20034;-44
2021/10/29 19:09:07;;;;;;;3.75;2.25;;;14.50;99.90;;;;;;20427226;28;20051;-44
2021/10/29 19:19:09;;;;;;;3.78;1.60;;;14.50;99.90;;;;;;20422709;28;20474;-44
2021/10/29 19:29:11;;;;;;;4.00;1.55;;;14.40;99.90;;;;;;20416892;28;20052;-44
2021/10/29 19:49:19;;;;;;;4.63;2.20;;;14.40;99.90;;;;;;20452895;28;20220;-44
2021/10/29 19:59:20;;;;;;;5.30;1.45;;;14.40;99.90;;;;;;20459788;28;20043;-44
2021/10/29 20:09:21;;;;;;;4.43;2.00;;;14.40;99.90;;;;;;20441456;28;20078;-44
2021/10/29 20:19:22;;;;;;;5.28;1.75;;;14.50;99.90;;;;;;20453786;28;20050;-44
2021/10/29 20:29:23;;;;;;;6.07;2.20;;;14.50;99.90;;;;;;20449566;28;20051;-44
2021/10/29 20:39:24;;;;;;;3.58;1.73;;;14.30;99.90;;;;;;20443689;28;20059;-44
2021/10/29 20:49:27;;;;;;;4.53;2.30;;;14.30;99.90;;;;;;20451443;28;20051;-44
2021/10/29 20:59:28;;;;;;;4.15;2.30;;;14.30;99.90;;;;;;20449179;28;20055;-44
2021/10/29 21:09:30;;;;;;;5.63;2.35;;;14.30;99.90;;;;;;20447459;28;20051;-44
2021/10/29 21:19:33;;;;;;;4.97;2.22;;;14.10;99.90;;;;;;20462802;28;20043;-44
2021/10/29 21:29:34;;;;;;;5.22;2.17;;;14.00;99.90;;;;;;20452720;28;20070;-44
2021/10/29 21:39:37;;;;;;;5.65;2.90;;;13.80;99.90;;;;;;20456360;28;20055;-44
2021/10/29 21:49:38;;;;;;;7.22;3.00;;;13.80;99.90;;;;;;20452636;28;20071;-44
2021/10/29 21:59:41;;;;;;;5.90;2.58;;;13.80;99.90;;;;;;20439772;28;20687;-44
2021/10/29 22:09:42;;;;;;;5.72;2.00;;;13.70;99.90;;;;;;20466067;28;20063;-44
2021/10/29 22:19:43;;;;;;;4.15;1.67;;;13.60;99.90;;;;;;20461426;28;20052;-44
2021/10/29 22:29:47;;;;;;;5.07;2.40;;;13.50;99.90;;;;;;20462817;28;20054;-44
2021/10/29 22:39:49;;;;;;;6.32;2.30;;;13.40;99.90;;;;;;20459258;28;20041;-44
2021/10/29 22:49:50;;;;;;;3.38;1.70;;;13.30;99.90;;;;;;20490488;28;20041;-44
2021/10/29 22:59:51;;;;;;;6.22;3.03;;;13.30;99.90;;;;;;20488883;28;20047;-45
2021/10/29 23:09:52;;;;;;;3.85;2.40;;;13.40;99.90;;;;;;20465245;28;20064;-44
2021/10/29 23:19:53;;;;;;;4.53;1.80;;;13.20;99.90;;;;;;20465838;28;20041;-45
2021/10/29 23:29:55;;;;;;;3.80;1.70;;;13.10;99.90;;;;;;20463702;28;20091;-45
2021/10/29 23:39:56;;;;;;;5.15;1.90;;;13.00;99.90;;;;;;20442317;28;20509;-45
2021/10/29 23:49:57;;;;;;;5.05;1.98;;;12.90;99.90;;;;;;20450060;28;20519;-45
2021/10/29 23:59:58;;;;;;;2.97;1.52;;;12.90;99.90;;;;;;20449588;28;20394;-45
